createdAt,value
2023-12-15T00:01:44.689Z,5.12
2023-12-15T00:04:11.933Z,5.14
2023-12-15T00:09:06.341Z,5.11
2023-12-15T00:11:33.764Z,5.17
2023-12-15T00:14:04.840Z,5.14
2023-12-15T00:16:32.182Z,5.14
2023-12-15T00:18:59.432Z,5.20
2023-12-15T00:21:26.724Z,5.26
2023-12-15T00:23:54.129Z,5.26
2023-12-15T00:26:21.410Z,5.26
2023-12-15T00:28:48.657Z,5.24
2023-12-15T00:31:17.248Z,5.22
2023-12-15T00:33:44.393Z,5.23
2023-12-15T00:36:11.896Z,5.28
2023-12-15T00:38:39.024Z,5.30
2023-12-15T00:41:06.753Z,5.30
2023-12-15T00:43:33.882Z,5.32
2023-12-15T00:46:01.616Z,5.33
2023-12-15T00:48:30.230Z,5.33
2023-12-15T00:50:57.601Z,5.34
2023-12-15T00:53:24.953Z,5.33
2023-12-15T00:55:53.081Z,5.35
2023-12-15T00:58:20.320Z,5.34
2023-12-15T01:00:47.580Z,5.36
2023-12-15T01:03:14.686Z,5.32
2023-12-15T01:05:43.413Z,5.36
2023-12-15T01:08:10.606Z,5.32
2023-12-15T01:10:40.449Z,5.32
2023-12-15T01:13:07.671Z,5.29
2023-12-15T01:15:35.581Z,5.27
2023-12-15T01:18:02.914Z,5.33
2023-12-15T01:20:30.293Z,5.38
2023-12-15T01:22:59.013Z,5.34
2023-12-15T01:25:26.096Z,5.35
2023-12-15T01:27:53.279Z,5.35
2023-12-15T01:30:20.510Z,5.35
2023-12-15T01:32:47.962Z,5.31
2023-12-15T01:35:15.341Z,5.28
2023-12-15T01:37:43.014Z,5.24
2023-12-15T01:40:12.733Z,5.26
2023-12-15T01:42:40.024Z,5.25
2023-12-15T01:45:08.231Z,5.22
2023-12-15T01:47:36.161Z,5.19
2023-12-15T01:50:03.774Z,5.20
2023-12-15T01:52:31.040Z,5.21
2023-12-15T01:54:58.183Z,5.19
2023-12-15T01:57:26.769Z,5.17
2023-12-15T01:59:53.993Z,5.21
2023-12-15T02:02:21.226Z,5.21
2023-12-15T02:04:48.481Z,5.21
2023-12-15T02:07:15.677Z,5.14
2023-12-15T02:09:43.054Z,5.12
2023-12-15T02:12:10.290Z,5.13
2023-12-15T02:14:39.112Z,5.14
2023-12-15T02:17:05.954Z,5.15
2023-12-15T02:19:33.256Z,5.13
2023-12-15T02:22:00.302Z,5.14
2023-12-15T02:24:28.902Z,5.14
2023-12-15T02:26:57.000Z,5.09
2023-12-15T02:29:24.383Z,5.13
2023-12-15T02:31:51.600Z,5.11
2023-12-15T02:34:19.003Z,5.13
2023-12-15T02:36:46.246Z,5.16
2023-12-15T02:39:13.308Z,5.17
2023-12-15T02:41:41.815Z,5.20
2023-12-15T02:44:08.938Z,5.18
2023-12-15T02:46:37.667Z,5.16
2023-12-15T02:49:04.815Z,5.19
2023-12-15T02:51:32.744Z,5.24
2023-12-15T02:54:01.795Z,5.22
2023-12-15T02:56:29.328Z,5.15
2023-12-15T02:58:57.930Z,5.13
2023-12-15T03:01:25.108Z,5.13
2023-12-15T03:03:52.566Z,5.12
2023-12-15T03:06:19.888Z,5.07
2023-12-15T03:08:47.095Z,5.08
2023-12-15T03:11:14.761Z,5.12
2023-12-15T03:13:42.064Z,5.08
2023-12-15T03:16:11.728Z,5.07
2023-12-15T03:18:39.607Z,5.07
2023-12-15T03:21:07.282Z,5.01
2023-12-15T03:23:35.322Z,5.03
2023-12-15T03:26:02.590Z,5.01
2023-12-15T03:28:29.777Z,5.04
2023-12-15T03:30:56.885Z,5.09
2023-12-15T03:33:29.490Z,5.06
2023-12-15T03:35:56.697Z,5.07
2023-12-15T03:38:23.883Z,5.01
2023-12-15T03:40:51.344Z,4.98
2023-12-15T03:43:18.528Z,5.02
2023-12-15T03:45:45.717Z,5.02
2023-12-15T03:48:13.164Z,5.04
2023-12-15T03:50:42.024Z,5.06
2023-12-15T03:53:09.041Z,5.04
2023-12-15T03:55:36.577Z,5.03
2023-12-15T03:58:03.961Z,4.98
2023-12-15T04:00:31.280Z,5.00
2023-12-15T04:02:58.488Z,5.04
2023-12-15T04:05:25.705Z,5.06
2023-12-15T04:07:54.311Z,5.04
2023-12-15T04:10:21.622Z,4.98
2023-12-15T04:12:48.803Z,5.01
2023-12-15T04:15:19.606Z,4.99
2023-12-15T04:17:47.283Z,4.99
2023-12-15T04:20:14.677Z,4.96
2023-12-15T04:22:42.072Z,4.95
2023-12-15T04:25:10.832Z,4.96
2023-12-15T04:27:40.301Z,4.99
2023-12-15T04:30:09.105Z,4.96
2023-12-15T04:32:36.291Z,4.95
2023-12-15T04:35:03.988Z,4.97
2023-12-15T04:37:30.960Z,4.94
2023-12-15T04:39:58.029Z,4.93
2023-12-15T04:42:26.519Z,4.93
2023-12-15T04:44:53.606Z,4.90
2023-12-15T04:47:20.574Z,4.91
2023-12-15T04:49:48.180Z,4.92
2023-12-15T04:52:15.086Z,4.94
2023-12-15T04:54:42.164Z,4.97
2023-12-15T04:57:09.112Z,4.97
2023-12-15T04:59:41.238Z,4.98
2023-12-15T05:02:08.633Z,4.98
2023-12-15T05:04:37.287Z,4.98
2023-12-15T05:07:06.137Z,5.00
2023-12-15T05:09:33.233Z,4.98
2023-12-15T05:12:00.431Z,4.94
2023-12-15T05:14:27.554Z,4.96
2023-12-15T05:16:56.032Z,5.01
2023-12-15T05:19:23.130Z,5.02
2023-12-15T05:21:50.223Z,4.99
2023-12-15T05:24:17.365Z,5.01
2023-12-15T05:26:44.893Z,4.91
2023-12-15T05:29:12.319Z,4.90
2023-12-15T05:31:39.490Z,4.88
2023-12-15T05:34:07.945Z,4.92
2023-12-15T05:36:35.187Z,4.94
2023-12-15T05:39:03.590Z,4.92
2023-12-15T05:41:30.992Z,4.92
2023-12-15T05:43:58.076Z,4.86
2023-12-15T05:46:25.169Z,4.85
2023-12-15T05:48:52.339Z,4.86
2023-12-15T05:51:20.961Z,4.86
2023-12-15T05:53:55.225Z,4.90
2023-12-15T05:56:25.539Z,4.88
2023-12-15T05:58:52.720Z,4.82
2023-12-15T06:01:19.777Z,4.86
2023-12-15T06:03:46.823Z,4.90
2023-12-15T06:06:14.292Z,4.85
2023-12-15T06:08:42.777Z,4.86
2023-12-15T06:11:11.757Z,4.85
2023-12-15T06:13:40.491Z,4.84
2023-12-15T06:16:07.734Z,4.78
2023-12-15T06:18:37.280Z,4.73
2023-12-15T06:21:04.687Z,4.77
2023-12-15T06:23:34.261Z,4.74
2023-12-15T06:26:02.758Z,4.74
2023-12-15T06:28:29.707Z,4.70
2023-12-15T06:30:56.816Z,4.74
2023-12-15T06:33:23.922Z,4.74
2023-12-15T06:35:51.047Z,4.74
2023-12-15T06:38:18.116Z,4.76
2023-12-15T06:40:45.270Z,4.74
2023-12-15T06:43:13.726Z,4.75
2023-12-15T06:45:40.818Z,4.71
2023-12-15T06:48:07.976Z,4.65
2023-12-15T06:50:35.248Z,4.64
2023-12-15T06:53:02.287Z,4.66
2023-12-15T06:55:29.330Z,4.64
2023-12-15T06:57:56.281Z,4.58
2023-12-15T07:00:24.686Z,4.51
2023-12-15T07:02:51.744Z,4.54
2023-12-15T07:05:18.756Z,4.58
2023-12-15T07:07:45.919Z,4.59
2023-12-15T07:10:12.986Z,4.57
2023-12-15T07:12:40.138Z,4.51
2023-12-15T07:15:08.778Z,4.51
2023-12-15T07:17:37.831Z,4.56
2023-12-15T07:20:06.717Z,4.55
2023-12-15T07:22:33.872Z,4.50
2023-12-15T07:25:01.274Z,4.56
2023-12-15T07:27:28.218Z,4.61
2023-12-15T07:29:56.127Z,4.60
2023-12-15T07:32:23.178Z,4.58
2023-12-15T07:34:52.359Z,4.56
2023-12-15T07:37:19.301Z,4.50
2023-12-15T07:39:46.358Z,4.53
2023-12-15T07:42:13.460Z,4.51
2023-12-15T07:44:40.756Z,4.49
2023-12-15T07:47:07.909Z,4.53
2023-12-15T07:49:35.835Z,4.52
2023-12-15T07:52:05.282Z,4.60
2023-12-15T07:54:32.407Z,4.58
2023-12-15T07:56:59.390Z,4.59
2023-12-15T07:59:26.779Z,4.55
2023-12-15T08:01:56.318Z,4.58
2023-12-15T08:04:23.489Z,4.62
2023-12-15T08:06:50.489Z,4.63
2023-12-15T08:09:18.982Z,4.57
2023-12-15T08:11:46.090Z,4.62
2023-12-15T08:14:13.443Z,4.63
2023-12-15T08:16:41.235Z,4.61
2023-12-15T08:19:09.828Z,4.65
2023-12-15T08:21:36.783Z,4.67
2023-12-15T08:24:04.338Z,4.74
2023-12-15T08:26:33.966Z,4.70
2023-12-15T08:29:01.012Z,4.70
2023-12-15T08:31:28.039Z,4.70
2023-12-15T08:33:57.944Z,4.73
2023-12-15T08:36:24.998Z,4.74
2023-12-15T08:38:52.062Z,4.74
2023-12-15T08:41:19.058Z,4.77
2023-12-15T08:43:47.463Z,4.81
2023-12-15T08:46:14.507Z,4.90
2023-12-15T08:48:41.530Z,4.96
2023-12-15T08:51:09.145Z,5.03
2023-12-15T08:53:36.186Z,5.05
2023-12-15T08:56:03.532Z,5.04
2023-12-15T08:58:30.551Z,5.15
2023-12-15T09:00:58.964Z,5.27
2023-12-15T09:03:26.055Z,5.31
2023-12-15T09:06:16.337Z,5.37
2023-12-15T09:08:40.438Z,5.36
2023-12-15T09:11:07.770Z,5.45
2023-12-15T09:13:35.330Z,5.52
2023-12-15T09:16:03.927Z,5.49
2023-12-15T09:18:30.953Z,5.42
2023-12-15T09:20:58.151Z,5.40
2023-12-15T09:23:25.335Z,5.33
2023-12-15T09:25:53.104Z,5.34
2023-12-15T09:28:22.543Z,5.36
2023-12-15T09:30:49.572Z,5.38
2023-12-15T09:33:18.256Z,5.43
2023-12-15T09:35:45.444Z,5.37
2023-12-15T09:38:13.890Z,5.42
2023-12-15T09:40:42.490Z,5.45
2023-12-15T09:43:09.548Z,5.49
2023-12-15T09:45:38.525Z,5.49
2023-12-15T09:48:08.377Z,5.56
2023-12-15T09:50:41.245Z,5.62
2023-12-15T09:53:08.524Z,5.72
2023-12-15T09:55:35.706Z,5.76
2023-12-15T09:58:02.766Z,5.77
2023-12-15T10:00:31.391Z,5.77
2023-12-15T10:02:59.037Z,5.82
2023-12-15T10:05:28.359Z,5.84
2023-12-15T10:07:56.958Z,5.78
2023-12-15T10:10:27.027Z,5.77
2023-12-15T10:12:55.947Z,5.79
2023-12-15T10:15:25.501Z,5.71
2023-12-15T10:17:54.877Z,5.62
2023-12-15T10:20:21.939Z,5.62
2023-12-15T10:22:49.268Z,5.63
2023-12-15T10:25:20.928Z,5.50
2023-12-15T10:27:49.016Z,5.47
2023-12-15T10:30:16.667Z,5.51
2023-12-15T10:32:44.197Z,5.53
2023-12-15T10:35:11.757Z,5.59
2023-12-15T10:37:39.080Z,5.63
2023-12-15T10:40:07.730Z,5.71
2023-12-15T10:42:37.133Z,5.82
2023-12-15T10:45:07.191Z,5.93
2023-12-15T10:47:35.085Z,5.95
2023-12-15T10:50:03.329Z,5.92
2023-12-15T10:52:34.736Z,5.92
2023-12-15T10:55:05.083Z,5.88
2023-12-15T10:57:32.266Z,5.87
2023-12-15T11:00:00.726Z,5.92
2023-12-15T11:02:29.424Z,5.93
2023-12-15T11:04:56.606Z,5.96
2023-12-15T11:07:25.959Z,5.98
2023-12-15T11:09:53.000Z,6.00
2023-12-15T11:12:24.783Z,5.92
2023-12-15T11:14:53.308Z,5.81
2023-12-15T11:17:21.937Z,5.80
2023-12-15T11:19:52.270Z,5.78
2023-12-15T11:22:19.466Z,5.74
2023-12-15T11:24:46.507Z,5.69
2023-12-15T11:27:16.555Z,5.69
2023-12-15T11:29:43.659Z,5.67
2023-12-15T11:32:31.838Z,5.60
2023-12-15T11:34:59.124Z,5.48
2023-12-15T11:37:27.320Z,5.43
2023-12-15T11:39:55.449Z,5.39
2023-12-15T11:42:23.013Z,5.43
2023-12-15T11:44:50.480Z,5.41
2023-12-15T11:47:17.572Z,5.43
2023-12-15T11:49:46.268Z,5.38
2023-12-15T11:52:13.839Z,5.39
2023-12-15T11:54:40.849Z,5.46
2023-12-15T11:57:08.070Z,5.50
2023-12-15T11:59:41.316Z,5.55
2023-12-15T12:02:08.533Z,5.56
2023-12-15T12:04:35.595Z,5.59
2023-12-15T12:07:04.506Z,5.61
2023-12-15T12:09:31.252Z,5.58
2023-12-15T12:11:58.768Z,5.49
2023-12-15T12:14:28.622Z,5.42
2023-12-15T12:16:57.418Z,5.35
2023-12-15T12:19:24.318Z,5.41
2023-12-15T12:21:54.473Z,5.42
2023-12-15T12:24:22.986Z,5.44
2023-12-15T12:26:51.941Z,5.42
2023-12-15T12:29:19.249Z,5.46
2023-12-15T12:31:46.559Z,5.44
2023-12-15T12:34:13.725Z,5.32
2023-12-15T12:36:40.715Z,5.29
2023-12-15T12:39:07.896Z,5.28
2023-12-15T12:41:36.399Z,5.13
2023-12-15T12:44:03.897Z,5.16
2023-12-15T12:46:32.280Z,5.16
2023-12-15T12:48:59.395Z,5.06
2023-12-15T12:51:26.495Z,4.87
2023-12-15T12:53:53.593Z,4.77
2023-12-15T12:56:22.763Z,4.71
2023-12-15T12:58:51.415Z,4.70
2023-12-15T13:01:18.499Z,4.72
2023-12-15T13:03:46.374Z,4.74
2023-12-15T13:06:13.441Z,4.71
2023-12-15T13:08:41.530Z,4.66
2023-12-15T13:11:08.662Z,4.53
2023-12-15T13:13:35.701Z,4.54
2023-12-15T13:16:04.590Z,4.50
2023-12-15T13:18:31.882Z,4.47
2023-12-15T13:21:00.047Z,4.38
2023-12-15T13:23:27.236Z,4.30
2023-12-15T13:25:54.285Z,4.22
2023-12-15T13:28:21.621Z,4.19
2023-12-15T13:30:48.642Z,4.18
2023-12-15T13:33:17.653Z,4.18
2023-12-15T13:35:44.851Z,4.21
2023-12-15T13:38:12.046Z,4.16
2023-12-15T13:40:39.142Z,4.05
2023-12-15T13:43:06.494Z,4.02
2023-12-15T13:45:33.519Z,3.95
2023-12-15T13:48:00.842Z,3.86
2023-12-15T13:50:29.623Z,3.86
2023-12-15T13:52:56.778Z,3.89
2023-12-15T13:55:24.323Z,3.91
2023-12-15T13:57:52.897Z,3.93
2023-12-15T14:00:20.403Z,3.93
2023-12-15T14:02:47.694Z,3.86
2023-12-15T14:05:15.247Z,3.86
2023-12-15T14:07:44.080Z,3.78
2023-12-15T14:10:14.345Z,3.71
2023-12-15T14:12:45.782Z,3.63
2023-12-15T14:15:13.042Z,3.66
2023-12-15T14:17:40.812Z,3.69
2023-12-15T14:20:09.135Z,3.73
2023-12-15T14:22:37.528Z,3.70
2023-12-15T14:25:08.448Z,3.64
2023-12-15T14:27:36.284Z,3.45
2023-12-15T14:30:08.889Z,3.45
2023-12-15T14:32:36.529Z,3.48
2023-12-15T14:35:04.726Z,3.43
2023-12-15T14:37:32.130Z,3.42
2023-12-15T14:39:59.790Z,3.45
2023-12-15T14:42:28.490Z,3.52
2023-12-15T14:44:55.758Z,3.53
2023-12-15T14:47:23.115Z,3.47
2023-12-15T14:49:50.414Z,3.34
2023-12-15T14:52:18.526Z,3.36
2023-12-15T14:54:45.706Z,3.28
2023-12-15T14:57:13.751Z,3.21
2023-12-15T14:59:42.657Z,3.19
2023-12-15T15:02:11.300Z,3.21
2023-12-15T15:04:38.447Z,3.17
2023-12-15T15:07:05.914Z,3.10
2023-12-15T15:09:33.815Z,3.16
2023-12-15T15:12:00.978Z,3.16
2023-12-15T15:14:28.301Z,3.10
2023-12-15T15:16:56.961Z,3.15
2023-12-15T15:19:24.243Z,3.24
2023-12-15T15:21:51.565Z,3.31
2023-12-15T15:24:18.928Z,3.31
2023-12-15T15:26:46.238Z,3.37
2023-12-15T15:29:13.611Z,3.44
2023-12-15T15:31:41.913Z,3.56
2023-12-15T15:34:10.643Z,3.62
2023-12-15T15:36:39.246Z,3.68
2023-12-15T15:39:06.394Z,3.65
2023-12-15T15:41:33.733Z,3.55
2023-12-15T15:44:06.133Z,3.41
2023-12-15T15:46:38.230Z,3.25
2023-12-15T15:49:05.384Z,3.00
2023-12-15T15:51:34.245Z,2.95
2023-12-15T15:54:01.253Z,2.89
2023-12-15T15:56:28.317Z,2.69
2023-12-15T15:58:57.600Z,2.66
2023-12-15T16:01:32.491Z,2.65
2023-12-15T16:04:05.343Z,2.51
2023-12-15T16:06:34.180Z,2.51
2023-12-15T16:09:01.287Z,2.49
2023-12-15T16:11:28.535Z,2.53
2023-12-15T16:14:02.143Z,2.51
2023-12-15T16:16:33.327Z,2.51
2023-12-15T16:19:00.639Z,2.63
2023-12-15T16:21:27.948Z,2.70
2023-12-15T16:23:58.886Z,2.80
2023-12-15T16:26:26.657Z,2.70
2023-12-15T16:28:53.839Z,2.55
2023-12-15T16:31:21.155Z,2.65
2023-12-15T16:33:48.618Z,2.69
2023-12-15T16:36:30.862Z,2.71
2023-12-15T16:38:59.547Z,2.63
2023-12-15T16:41:28.224Z,2.63
2023-12-15T16:43:55.564Z,2.62
2023-12-15T16:46:22.852Z,2.70
2023-12-15T16:48:55.936Z,2.73
2023-12-15T16:51:28.392Z,2.74
2023-12-15T16:53:55.865Z,2.74
2023-12-15T16:56:24.849Z,2.67
2023-12-15T16:58:52.226Z,2.63
2023-12-15T17:01:19.722Z,2.56
2023-12-15T17:03:47.460Z,2.50
2023-12-15T17:06:15.151Z,2.43
2023-12-15T17:08:45.482Z,2.42
2023-12-15T17:11:13.472Z,2.37
2023-12-15T17:13:42.098Z,2.37
2023-12-15T17:16:14.293Z,2.37
2023-12-15T17:18:41.712Z,2.33
2023-12-15T17:21:12.705Z,2.25
2023-12-15T17:23:39.975Z,2.22
2023-12-15T17:26:07.209Z,2.11
2023-12-15T17:28:34.414Z,2.01
2023-12-15T17:31:05.444Z,2.00
2023-12-15T17:33:32.984Z,1.98
2023-12-15T17:36:00.357Z,1.98
2023-12-15T17:38:27.657Z,2.00
2023-12-15T17:40:54.866Z,1.93
2023-12-15T17:43:24.403Z,2.02
2023-12-15T17:45:51.750Z,1.96
2023-12-15T17:48:21.862Z,2.10
2023-12-15T17:50:49.727Z,2.01
2023-12-15T17:53:17.128Z,1.96
2023-12-15T17:55:44.330Z,1.97
2023-12-15T17:58:13.031Z,1.97
2023-12-15T18:00:43.277Z,1.92
2023-12-15T18:03:11.320Z,1.93
2023-12-15T18:05:40.209Z,1.93
2023-12-15T18:08:07.388Z,1.90
2023-12-15T18:10:34.549Z,1.90
2023-12-15T18:13:01.798Z,1.89
2023-12-15T18:15:47.906Z,1.84
2023-12-15T18:18:15.218Z,1.84
2023-12-15T18:20:43.797Z,1.74
2023-12-15T18:23:14.803Z,1.61
2023-12-15T18:25:42.453Z,1.66
2023-12-15T18:28:16.117Z,1.72
2023-12-15T18:30:47.770Z,1.77
2023-12-15T18:33:15.668Z,1.81
2023-12-15T18:35:44.938Z,1.77
2023-12-15T18:38:12.303Z,1.74
2023-12-15T18:40:39.447Z,1.81
2023-12-15T18:43:07.093Z,1.89
2023-12-15T18:45:34.684Z,1.81
2023-12-15T18:48:01.942Z,1.72
2023-12-15T18:50:29.388Z,1.70
2023-12-15T18:52:58.335Z,1.68
2023-12-15T18:55:25.625Z,1.71
2023-12-15T18:57:53.272Z,1.68
2023-12-15T19:00:22.710Z,1.71
2023-12-15T19:02:51.052Z,1.83
2023-12-15T19:05:18.601Z,1.93
2023-12-15T19:07:49.042Z,1.93
2023-12-15T19:10:18.141Z,1.99
2023-12-15T19:12:46.937Z,2.02
2023-12-15T19:15:14.250Z,2.09
2023-12-15T19:17:41.817Z,2.16
2023-12-15T19:20:10.687Z,2.20
2023-12-15T19:22:37.921Z,2.28
2023-12-15T19:25:06.165Z,2.22
2023-12-15T19:27:36.421Z,2.15
2023-12-15T19:30:05.735Z,2.12
2023-12-15T19:32:35.937Z,2.13
2023-12-15T19:35:04.386Z,2.20
2023-12-15T19:37:32.614Z,2.28
2023-12-15T19:40:02.908Z,2.09
2023-12-15T19:42:32.710Z,1.87
2023-12-15T19:45:02.048Z,1.96
2023-12-15T19:47:29.220Z,2.08
2023-12-15T19:49:56.496Z,2.15
2023-12-15T19:52:25.252Z,2.16
2023-12-15T19:54:52.561Z,2.17
2023-12-15T19:57:19.804Z,2.23
2023-12-15T19:59:47.595Z,2.01
2023-12-15T20:02:16.189Z,1.72
2023-12-15T20:04:43.749Z,1.50
2023-12-15T20:07:11.289Z,1.58
2023-12-15T20:09:38.467Z,1.71
2023-12-15T20:12:06.313Z,1.74
2023-12-15T20:14:33.555Z,1.69
2023-12-15T20:17:01.636Z,1.62
2023-12-15T20:19:30.286Z,1.64
2023-12-15T20:21:59.929Z,1.62
2023-12-15T20:24:27.902Z,1.60
2023-12-15T20:26:54.994Z,1.58
2023-12-15T20:29:22.251Z,1.60
2023-12-15T20:31:49.448Z,1.60
2023-12-15T20:34:17.706Z,1.58
2023-12-15T20:36:46.522Z,1.52
2023-12-15T20:39:16.591Z,1.45
2023-12-15T20:41:44.671Z,1.39
2023-12-15T20:44:14.856Z,1.36
2023-12-15T20:46:44.021Z,1.29
2023-12-15T20:49:11.405Z,1.22
2023-12-15T20:51:38.793Z,1.19
2023-12-15T20:54:07.540Z,1.22
2023-12-15T20:56:34.736Z,1.23
2023-12-15T20:59:01.930Z,1.23
2023-12-15T21:01:29.272Z,1.18
2023-12-15T21:03:58.140Z,1.16
2023-12-15T21:06:26.035Z,1.21
2023-12-15T21:08:53.425Z,1.20
2023-12-15T21:11:22.252Z,1.19
2023-12-15T21:13:52.729Z,1.25
2023-12-15T21:16:24.976Z,1.24
2023-12-15T21:18:52.563Z,1.27
2023-12-15T21:21:26.731Z,1.29
2023-12-15T21:23:53.774Z,1.30
2023-12-15T21:26:22.514Z,1.22
2023-12-15T21:28:49.738Z,1.25
2023-12-15T21:31:17.546Z,1.26
2023-12-15T21:33:44.935Z,1.22
2023-12-15T21:36:12.340Z,1.20
2023-12-15T21:38:40.562Z,1.15
2023-12-15T21:41:08.389Z,1.15
2023-12-15T21:43:36.985Z,1.16
2023-12-15T21:46:04.667Z,1.15
2023-12-15T21:48:33.372Z,1.11
2023-12-15T21:51:00.775Z,1.09
2023-12-15T21:53:27.983Z,1.14
2023-12-15T21:55:55.132Z,1.16
2023-12-15T21:58:22.324Z,1.15
2023-12-15T22:00:51.205Z,1.13
2023-12-15T22:03:19.111Z,1.19
2023-12-15T22:05:47.449Z,1.20
2023-12-15T22:08:14.706Z,1.21
2023-12-15T22:10:41.995Z,1.24
2023-12-15T22:13:09.251Z,1.18
2023-12-15T22:15:36.490Z,1.19
2023-12-15T22:18:05.241Z,1.18
2023-12-15T22:20:32.634Z,1.17
2023-12-15T22:23:00.098Z,1.22
2023-12-15T22:25:27.461Z,1.20
2023-12-15T22:27:54.758Z,1.26
2023-12-15T22:30:26.499Z,1.24
2023-12-15T22:32:54.068Z,1.21
2023-12-15T22:35:22.596Z,1.18
2023-12-15T22:37:49.938Z,1.14
2023-12-15T22:40:17.316Z,1.13
2023-12-15T22:42:45.057Z,1.04
2023-12-15T22:45:12.657Z,1.03
2023-12-15T22:47:40.199Z,1.02
2023-12-15T22:50:08.826Z,1.02
2023-12-15T22:52:37.884Z,1.01
2023-12-15T22:55:05.935Z,1.03
2023-12-15T22:57:33.148Z,0.99
2023-12-15T23:00:00.425Z,0.99
2023-12-15T23:02:27.553Z,0.93
2023-12-15T23:04:54.844Z,0.97
2023-12-15T23:07:22.117Z,0.98
2023-12-15T23:09:50.731Z,0.98
2023-12-15T23:12:18.075Z,1.01
2023-12-15T23:14:45.482Z,1.04
2023-12-15T23:17:12.674Z,1.07
2023-12-15T23:19:39.881Z,1.10
2023-12-15T23:22:07.251Z,1.08
2023-12-15T23:24:35.509Z,1.00
2023-12-15T23:27:04.733Z,0.99
2023-12-15T23:29:34.449Z,0.96
2023-12-15T23:32:02.663Z,1.01
2023-12-15T23:34:30.058Z,1.06
2023-12-15T23:36:57.385Z,1.04
2023-12-15T23:39:24.593Z,1.03
2023-12-15T23:41:51.708Z,0.97
2023-12-15T23:44:22.021Z,0.96
2023-12-15T23:46:49.197Z,0.92
2023-12-15T23:49:16.523Z,0.92
2023-12-15T23:51:43.975Z,0.97
2023-12-15T23:54:11.166Z,1.02
2023-12-15T23:56:38.264Z,0.98
2023-12-15T23:59:05.505Z,1.04
